.
WxDataArchive / Data Records for 2006-06-11
2006-06-10 June 2006 2006-06-12

Data Records for Sunday, 11 June 2006

Time	Temp	Chill	HIndex	Humid	Dewpt	 Wind 	HiWind	WindDir	Rain 	Barom 
-----	----	-----	------	-----	-----	------	------	-------	-----	----- 
00:00	53.6	53.6	53.6	92	51.3	0	0	---	0.00	29.904 
00:05	53.5	53.5	53.5	92	51.2	0	0	---	0.00	29.904 
00:10	53.3	53.3	53.3	92	51.0	0	0	---	0.00	29.904 
00:15	53.2	53.2	53.2	92	50.9	0	0	---	0.00	29.893 
00:20	53.1	53.1	53.1	92	50.8	0	0	---	0.00	29.893 
00:25	53.1	53.1	53.1	92	50.8	0	0	---	0.00	29.893 
00:30	52.9	52.9	52.9	92	50.6	0	0	---	0.00	29.891 
00:35	52.9	52.9	52.9	93	50.9	0	0	---	0.00	29.891 
00:40	52.8	52.8	52.8	92	50.5	0	0	---	0.00	29.891 
00:45	52.6	52.6	52.6	93	50.6	0	0	---	0.00	29.893 
00:50	52.6	52.6	52.6	93	50.6	0	0	---	0.00	29.893 
00:55	52.6	52.6	52.6	93	50.6	0	0	---	0.00	29.893 
01:00	52.8	52.8	52.8	93	50.8	0	0	---	0.00	29.891 
01:05	52.8	52.8	52.8	94	51.1	0	0	---	0.00	29.891 
01:10	52.8	52.8	52.8	94	51.1	0	0	---	0.00	29.891 
01:15	52.8	52.8	52.8	94	51.1	0	0	---	0.00	29.884 
01:20	52.9	52.9	52.9	94	51.2	0	0	---	0.00	29.884 
01:25	52.9	52.9	52.9	94	51.2	0	0	---	0.00	29.884 
01:30	53.2	53.2	53.2	94	51.5	0	0	---	0.00	29.883 
01:35	53.3	53.3	53.3	94	51.6	0	0	---	0.00	29.883 
01:40	53.3	53.3	53.3	94	51.6	0	0	---	0.00	29.883 
01:45	53.5	53.5	53.5	95	52.1	0	0	---	0.00	29.880 
01:50	53.6	53.6	53.6	95	52.2	0	0	---	0.00	29.880 
01:55	53.6	53.6	53.6	95	52.2	0	0	---	0.00	29.880 
02:00	53.9	53.9	53.9	95	52.5	0	0	---	0.00	29.872 
02:05	54.1	54.1	54.1	95	52.7	0	0	---	0.00	29.872 
02:10	54.2	54.2	54.2	95	52.8	0	0	---	0.00	29.872 
02:15	54.5	54.5	54.5	95	53.1	0	0	---	0.00	29.860 
02:20	54.7	54.7	54.7	95	53.3	0	0	---	0.00	29.860 
02:25	54.8	54.8	54.8	95	53.4	0	0	---	0.00	29.860 
02:30	55.0	55.0	55.0	95	53.6	0	0	---	0.00	29.865 
02:35	55.0	55.0	55.0	95	53.6	0	0	---	0.00	29.865 
02:40	55.0	55.0	55.0	95	53.6	0	0	---	0.00	29.865 
02:45	55.0	55.0	55.0	95	53.6	0	0	---	0.00	29.868 
02:50	55.0	55.0	55.0	95	53.6	0	0	---	0.00	29.868 
02:55	55.0	55.0	55.0	95	53.6	0	0	---	0.00	29.868 
03:00	55.0	55.0	55.0	95	53.6	0	0	---	0.00	29.867 
03:05	55.1	55.1	55.1	95	53.7	0	0	---	0.00	29.867 
03:10	55.1	55.1	55.1	95	53.7	0	0	---	0.00	29.867 
03:15	55.1	55.1	55.1	95	53.7	0	0	---	0.00	29.861 
03:20	55.3	55.3	55.3	95	53.9	0	0	---	0.00	29.861 
03:25	55.3	55.3	55.3	95	53.9	0	0	---	0.00	29.861 
03:30	55.3	55.3	55.3	95	53.9	0	0	---	0.00	29.859 
03:35	55.4	55.4	55.4	95	54.0	0	0	---	0.00	29.859 
03:40	55.4	55.4	55.4	95	54.0	0	0	---	0.00	29.859 
03:45	55.4	55.4	55.4	94	53.7	0	0	---	0.00	29.860 
03:50	55.4	55.4	55.4	94	53.7	0	0	---	0.00	29.860 
03:55	55.4	55.4	55.4	94	53.7	0	0	---	0.00	29.860 
04:00	55.6	55.6	55.6	94	53.9	0	0	---	0.00	29.864 
04:05	55.6	55.6	55.6	94	53.9	0	0	---	0.00	29.864 
04:10	55.6	55.6	55.6	94	53.9	0	0	---	0.00	29.864 
04:15	55.7	55.7	55.7	94	54.0	0	0	---	0.00	29.870 
04:20	55.7	55.7	55.7	94	54.0	0	0	---	0.00	29.870 
04:25	55.7	55.7	55.7	93	53.7	0	0	---	0.00	29.870 
04:30	55.9	55.9	55.9	93	53.9	0	0	---	0.00	29.868 
04:35	55.9	55.9	55.9	93	53.9	0	0	---	0.00	29.868 
04:40	55.9	55.9	55.9	93	53.9	0	0	---	0.00	29.868 
04:45	55.9	55.9	55.9	93	53.9	0	0	---	0.00	29.866 
04:50	55.9	55.9	55.9	93	53.9	0	0	---	0.00	29.866 
04:55	55.7	55.7	55.7	92	53.4	0	2	90	0.00	29.866 
05:00	55.7	55.7	55.7	92	53.4	0	2	90	0.00	29.869 
05:05	55.7	55.7	55.7	91	53.1	0	1	90	0.00	29.869 
05:10	55.6	55.6	55.6	89	52.4	0	2	90	0.00	29.869 
05:15	55.4	55.4	55.4	87	51.6	0	1	90	0.00	29.878 
05:20	55.1	55.1	55.1	83	50.0	0	3	90	0.00	29.878 
05:25	55.1	55.1	55.1	82	49.7	0	1	90	0.00	29.878 
05:30	55.1	55.1	55.1	79	48.7	0	2	90	0.00	29.884 
05:35	55.0	55.0	55.0	80	48.9	0	2	90	0.00	29.884 
05:40	55.0	55.0	55.0	80	48.9	0	3	90	0.00	29.884 
05:45	54.7	54.7	54.7	79	48.3	1	4	90	0.00	29.882 
05:50	54.5	54.5	54.5	79	48.1	0	2	90	0.00	29.882 
05:55	54.2	54.2	54.2	78	47.5	2	6	45	0.00	29.882 
06:00	53.9	53.9	53.9	78	47.2	2	4	112	0.00	29.875 
06:05	53.8	53.8	53.8	79	47.4	1	4	112	0.00	29.875 
06:10	53.6	53.6	53.6	79	47.2	1	4	68	0.00	29.875 
06:15	53.5	53.5	53.5	80	47.5	1	3	112	0.00	29.875 
06:20	53.3	53.3	53.3	79	47.0	1	4	90	0.00	29.875 
06:25	53.2	53.2	53.2	79	46.9	1	5	68	0.00	29.875 
06:30	53.1	53.1	53.1	79	46.8	2	7	90	0.00	29.856 
06:35	52.9	52.9	52.9	80	46.9	1	3	45	0.00	29.856 
06:40	52.9	52.9	52.9	80	46.9	1	4	112	0.00	29.856 
06:45	52.8	52.8	52.8	81	47.1	1	3	90	0.00	29.869 
06:50	52.6	52.6	52.6	80	46.6	1	4	68	0.00	29.869 
06:55	52.6	52.6	52.6	80	46.6	1	4	22	0.00	29.869 
07:00	52.6	52.6	52.6	80	46.6	1	3	112	0.00	29.879 
07:05	52.6	52.6	52.6	79	46.3	1	3	68	0.00	29.879 
07:10	52.8	52.8	52.8	80	46.8	0	1	68	0.00	29.879 
07:15	52.8	52.8	52.8	79	46.5	0	2	68	0.00	29.885 
07:20	52.8	52.8	52.8	79	46.5	0	2	68	0.00	29.885 
07:25	52.8	52.8	52.8	78	46.1	0	2	68	0.00	29.885 
07:30	52.8	52.8	52.8	78	46.1	1	2	112	0.00	29.886 
07:35	52.9	52.9	52.9	77	45.9	0	3	112	0.00	29.886 
07:40	52.9	52.9	52.9	77	45.9	2	6	112	0.00	29.886 
07:45	52.9	52.9	52.9	78	46.2	1	3	112	0.00	29.882 
07:50	53.1	53.1	53.1	77	46.1	1	4	112	0.00	29.882 
07:55	53.1	53.1	53.1	76	45.7	2	4	90	0.00	29.882 
08:00	53.2	53.2	53.2	75	45.5	2	4	90	0.00	29.888 
08:05	53.2	53.2	53.2	75	45.5	2	5	112	0.00	29.888 
08:10	53.3	53.3	53.3	74	45.2	3	6	90	0.00	29.888 
08:15	53.5	53.5	53.5	74	45.4	2	6	90	0.00	29.889 
08:20	53.5	53.5	53.5	74	45.4	2	7	112	0.00	29.889 
08:25	53.6	53.6	53.6	76	46.2	2	5	90	0.00	29.889 
08:30	53.8	53.8	53.8	74	45.7	2	4	90	0.00	29.896 
08:35	53.9	53.9	53.9	75	46.2	1	3	90	0.00	29.896 
08:40	53.9	53.9	53.9	74	45.8	2	4	90	0.00	29.896 
08:45	53.9	53.9	53.9	74	45.8	2	4	112	0.00	29.899 
08:50	53.9	53.9	53.9	73	45.4	2	5	90	0.00	29.899 
08:55	54.1	54.1	54.1	73	45.6	2	4	90	0.00	29.899 
09:00	54.1	54.1	54.1	74	46.0	3	5	90	0.00	29.886 
09:05	54.2	54.2	54.2	75	46.4	0	2	90	0.00	29.886 
09:10	54.5	54.5	54.5	73	46.0	2	3	90	0.00	29.886 
09:15	54.7	54.7	54.7	73	46.2	1	3	112	0.00	29.897 
09:20	54.8	54.8	54.8	72	45.9	2	5	90	0.00	29.897 
09:25	54.8	54.8	54.8	72	45.9	2	5	112	0.00	29.897 
09:30	54.8	54.8	54.8	74	46.7	1	7	90	0.00	29.906 
09:35	55.0	55.0	55.0	73	46.5	1	3	90	0.00	29.906 
09:40	55.0	55.0	55.0	73	46.5	1	3	90	0.00	29.906 
09:45	55.1	55.1	55.1	70	45.5	1	5	68	0.00	29.906 
09:50	55.1	55.1	55.1	70	45.5	2	4	112	0.00	29.906 
09:55	55.3	55.3	55.3	70	45.7	2	5	90	0.00	29.906 
10:00	55.4	55.4	55.4	71	46.2	1	6	45	0.00	29.903 
10:05	55.6	55.6	55.6	72	46.7	2	5	90	0.00	29.903 
10:10	55.7	55.7	55.7	72	46.8	1	5	90	0.00	29.903 
10:15	55.7	55.7	55.7	71	46.4	1	3	112	0.00	29.907 
10:20	55.9	55.9	55.9	72	47.0	1	3	45	0.00	29.907 
10:25	56.0	56.0	56.0	71	46.7	2	5	90	0.00	29.907 
10:30	56.0	56.0	56.0	70	46.4	3	6	90	0.00	29.909 
10:35	56.2	56.2	56.2	72	47.3	2	5	68	0.00	29.909 
10:40	56.3	56.3	56.3	70	46.6	1	4	22	0.00	29.909 
10:45	56.6	56.6	56.6	72	47.7	1	5	112	0.00	29.907 
10:50	56.7	56.7	56.7	69	46.6	2	4	90	0.00	29.907 
10:55	56.6	56.6	56.6	69	46.5	2	5	90	0.00	29.907 
11:00	56.6	56.6	56.6	70	46.9	2	4	112	0.00	29.915 
11:05	56.7	56.7	56.7	70	47.0	2	4	112	0.00	29.915 
11:10	56.9	56.9	56.9	71	47.6	1	3	90	0.00	29.915 
11:15	57.2	57.2	57.2	69	47.1	1	3	90	0.00	29.925 
11:20	57.3	57.3	57.3	69	47.2	1	3	90	0.00	29.925 
11:25	57.5	57.5	57.5	70	47.8	1	3	90	0.00	29.925 
11:30	57.6	57.6	57.6	69	47.5	2	4	90	0.00	29.924 
11:35	58.0	58.0	58.0	69	47.9	1	5	112	0.00	29.924 
11:40	58.3	58.3	58.3	73	49.7	1	2	90	0.00	29.924 
11:45	58.6	58.6	58.6	72	49.6	1	2	90	0.00	29.934 
11:50	58.7	58.7	58.7	69	48.6	1	3	45	0.00	29.934 
11:55	58.7	58.7	58.7	69	48.6	1	3	68	0.00	29.934 
12:00	58.7	58.7	58.7	69	48.6	1	4	68	0.00	29.936 
12:05	58.7	58.7	58.7	69	48.6	1	3	90	0.00	29.936 
12:10	58.9	58.9	58.9	69	48.7	2	4	90	0.00	29.936 
12:15	59.0	59.0	59.0	69	48.8	2	4	90	0.00	29.927 
12:20	59.2	59.2	59.2	69	49.0	2	4	112	0.00	29.927 
12:25	59.3	59.3	59.3	70	49.5	1	4	90	0.00	29.927 
12:30	59.5	59.5	59.5	71	50.1	1	3	90	0.00	29.928 
12:35	59.6	59.6	59.6	69	49.4	2	4	90	0.00	29.928 
12:40	59.8	59.8	59.8	69	49.6	1	4	90	0.00	29.928 
12:45	60.2	60.2	60.2	68	49.6	1	4	90	0.00	29.925 
12:50	60.2	60.2	60.2	66	48.8	2	4	90	0.00	29.925 
12:55	60.7	60.7	60.7	69	50.5	1	3	90	0.00	29.925 
13:00	61.2	61.2	61.2	68	50.5	2	4	90	0.00	29.924 
13:05	61.3	61.3	61.3	66	49.8	1	3	112	0.00	29.924 
13:10	61.6	61.6	61.6	68	50.9	1	3	90	0.00	29.924 
13:15	61.6	61.6	61.6	65	49.7	1	3	112	0.00	29.921 
13:20	61.8	61.8	61.8	65	49.9	1	4	112	0.00	29.921 
13:25	61.8	61.8	61.8	65	49.9	1	3	90	0.00	29.921 
13:30	62.1	62.1	62.1	65	50.2	1	2	90	0.00	29.920 
13:35	62.6	62.6	62.6	67	51.5	1	3	90	0.00	29.920 
13:40	63.1	63.1	63.1	65	51.1	1	2	90	0.00	29.920 
13:45	63.1	63.1	63.1	64	50.7	2	4	90	0.00	29.921 
13:50	62.9	62.9	62.9	62	49.7	1	3	90	0.00	29.921 
13:55	63.1	63.1	63.1	63	50.3	0	2	90	0.00	29.921 
14:00	63.5	63.5	63.5	67	52.3	0	2	90	0.00	29.921 
14:05	64.0	64.0	64.0	63	51.1	0	1	90	0.00	29.921 
14:10	64.5	64.5	64.5	63	51.6	0	1	90	0.00	29.921 
14:15	64.7	64.7	64.7	59	50.0	1	4	90	0.00	29.916 
14:20	64.8	64.8	64.8	57	49.2	1	3	90	0.00	29.916 
14:25	65.0	65.0	65.0	59	50.3	0	2	112	0.00	29.916 
14:30	65.3	65.3	65.3	62	51.9	1	4	90	0.00	29.915 
14:35	65.5	65.5	65.5	58	50.3	0	2	90	0.00	29.915 
14:40	65.8	65.8	65.8	55	49.2	1	3	90	0.00	29.915 
14:45	65.6	65.6	65.6	56	49.5	2	3	90	0.00	29.909 
14:50	65.5	65.5	65.5	55	48.9	1	3	90	0.00	29.909 
14:55	65.5	65.5	65.5	54	48.4	2	4	90	0.00	29.909 
15:00	65.6	65.6	65.6	59	50.9	1	4	90	0.00	29.912 
15:05	66.0	66.0	66.0	53	48.4	1	5	90	0.00	29.912 
15:10	66.3	66.3	66.3	54	49.1	2	4	90	0.00	29.912 
15:15	66.3	66.3	66.3	51	47.6	1	3	90	0.00	29.902 
15:20	66.3	66.3	66.3	51	47.6	1	5	90	0.00	29.902 
15:25	66.3	66.3	66.3	58	51.1	0	4	90	0.00	29.902 
15:30	66.3	66.3	66.3	50	47.1	1	4	90	0.00	29.901 
15:35	66.4	66.4	66.4	53	48.7	1	4	90	0.00	29.901 
15:40	66.8	66.8	66.8	53	49.1	1	3	90	0.00	29.901 
15:45	67.3	67.3	67.3	53	49.6	1	3	90	0.00	29.904 
15:50	68.1	68.1	68.1	50	48.7	1	3	90	0.00	29.904 
15:55	68.8	68.8	68.8	57	52.9	0	2	90	0.00	29.904 
16:00	69.8	69.8	69.8	56	53.4	0	1	0	0.00	29.898 
16:05	70.4	70.4	70.4	48	49.8	1	3	45	0.00	29.898 
16:10	70.3	70.3	70.3	53	52.3	2	4	90	0.00	29.898 
16:15	68.9	68.9	68.9	47	47.8	3	6	90	0.00	29.899 
16:20	67.4	67.4	67.4	50	48.1	2	3	90	0.00	29.899 
16:25	67.3	67.3	67.3	54	50.1	0	1	90	0.00	29.899 
16:30	67.9	67.9	67.9	53	50.1	0	3	292	0.00	29.892 
16:35	68.4	68.4	68.4	51	49.6	1	4	90	0.00	29.892 
16:40	69.3	69.3	69.3	49	49.3	1	3	90	0.00	29.892 
16:45	69.9	69.9	69.9	52	51.5	0	2	90	0.00	29.893 
16:50	70.3	70.3	70.3	48	49.7	1	3	112	0.00	29.893 
16:55	70.3	70.3	70.3	46	48.5	2	5	68	0.00	29.893 
17:00	69.8	69.8	69.8	45	47.5	2	6	90	0.00	29.895 
17:05	69.9	69.9	69.9	43	46.4	1	3	45	0.00	29.895 
17:10	70.1	70.1	70.1	48	49.5	0	2	45	0.00	29.895 
17:15	69.8	69.8	69.8	45	47.5	0	1	45	0.00	29.897 
17:20	70.3	70.3	70.3	44	47.3	0	1	45	0.00	29.897 
17:25	70.8	70.8	70.8	46	49.0	0	2	45	0.00	29.897 
17:30	70.6	70.6	70.6	48	49.9	1	4	45	0.00	29.892 
17:35	69.9	69.9	69.9	46	48.2	2	6	90	0.00	29.892 
17:40	69.9	69.9	69.9	47	48.7	0	2	90	0.00	29.892 
17:45	70.1	70.1	70.1	46	48.3	2	4	112	0.00	29.892 
17:50	70.3	70.3	70.3	48	49.7	1	4	90	0.00	29.892 
17:55	70.1	70.1	70.1	44	47.2	1	4	90	0.00	29.892 
18:00	69.9	69.9	69.9	44	47.0	1	2	112	0.00	29.891 
18:05	69.8	69.8	69.8	44	46.9	0	2	270	0.00	29.891 
18:10	69.4	69.4	69.4	44	46.5	0	2	292	0.00	29.891 
18:15	68.9	68.9	68.9	45	46.7	0	1	0	0.00	29.897 
18:20	68.6	68.6	68.6	42	44.6	0	2	0	0.00	29.897 
18:25	68.6	68.6	68.6	47	47.6	0	2	338	0.00	29.897 
18:30	68.8	68.8	68.8	42	44.8	1	2	338	0.00	29.895 
18:35	68.6	68.6	68.6	42	44.6	0	2	315	0.00	29.895 
18:40	68.4	68.4	68.4	44	45.6	0	1	315	0.00	29.895 
18:45	68.3	68.3	68.3	43	44.9	0	1	315	0.00	29.893 
18:50	68.3	68.3	68.3	43	44.9	0	1	315	0.00	29.893 
18:55	68.3	68.3	68.3	43	44.9	0	1	315	0.00	29.893 
19:00	68.3	68.3	68.3	47	47.3	0	2	0	0.00	29.888 
19:05	68.1	68.1	68.1	44	45.4	0	0	---	0.00	29.888 
19:10	68.1	68.1	68.1	45	45.9	0	1	22	0.00	29.888 
19:15	67.9	67.9	67.9	46	46.3	0	1	22	0.00	29.886 
19:20	67.8	67.8	67.8	44	45.1	0	0	---	0.00	29.886 
19:25	67.8	67.8	67.8	47	46.8	0	1	22	0.00	29.886 
19:30	67.4	67.4	67.4	46	45.9	0	1	22	0.00	29.885 
19:35	67.4	67.4	67.4	48	47.0	0	0	---	0.00	29.885 
19:40	67.4	67.4	67.4	47	46.5	0	0	---	0.00	29.885 
19:45	67.4	67.4	67.4	49	47.6	0	0	---	0.00	29.887 
19:50	67.3	67.3	67.3	46	45.8	0	1	22	0.00	29.887 
19:55	67.3	67.3	67.3	49	47.5	0	0	---	0.00	29.887 
20:00	67.1	67.1	67.1	48	46.7	0	0	---	0.00	29.886 
20:05	66.8	66.8	66.8	49	47.0	0	0	---	0.00	29.886 
20:10	66.4	66.4	66.4	50	47.2	0	0	---	0.00	29.886 
20:15	66.4	66.4	66.4	50	47.2	0	0	---	0.00	29.886 
20:20	66.3	66.3	66.3	51	47.6	0	0	---	0.00	29.886 
20:25	66.3	66.3	66.3	51	47.6	0	0	---	0.00	29.886 
20:30	66.1	66.1	66.1	53	48.5	0	0	---	0.00	29.888 
20:35	66.0	66.0	66.0	53	48.4	0	0	---	0.00	29.888 
20:40	65.8	65.8	65.8	53	48.2	0	0	---	0.00	29.888 
20:45	65.6	65.6	65.6	54	48.5	0	0	---	0.00	29.888 
20:50	65.5	65.5	65.5	55	48.9	0	0	---	0.00	29.888 
20:55	65.2	65.2	65.2	55	48.6	0	0	---	0.00	29.888 
21:00	65.0	65.0	65.0	55	48.4	0	0	---	0.00	29.896 
21:05	64.8	64.8	64.8	55	48.2	0	0	---	0.00	29.896 
21:10	64.5	64.5	64.5	56	48.4	0	0	---	0.00	29.896 
21:15	64.3	64.3	64.3	57	48.7	0	0	---	0.00	29.893 
21:20	64.0	64.0	64.0	57	48.5	0	0	---	0.00	29.893 
21:25	63.7	63.7	63.7	58	48.6	0	0	---	0.00	29.893 
21:30	63.4	63.4	63.4	58	48.4	0	0	---	0.00	29.890 
21:35	63.1	63.1	63.1	59	48.5	0	0	---	0.00	29.890 
21:40	62.9	62.9	62.9	60	48.8	0	0	---	0.00	29.890 
21:45	62.6	62.6	62.6	61	49.0	0	0	---	0.00	29.892 
21:50	62.3	62.3	62.3	62	49.1	0	0	---	0.00	29.892 
21:55	62.0	62.0	62.0	63	49.3	0	0	---	0.00	29.892 
22:00	61.6	61.6	61.6	64	49.3	0	0	---	0.00	29.903 
22:05	61.3	61.3	61.3	65	49.4	0	0	---	0.00	29.903 
22:10	61.0	61.0	61.0	67	50.0	0	0	---	0.00	29.903 
22:15	60.7	60.7	60.7	68	50.1	0	0	---	0.00	29.906 
22:20	60.5	60.5	60.5	69	50.3	0	0	---	0.00	29.906 
22:25	60.2	60.2	60.2	70	50.4	0	0	---	0.00	29.906 
22:30	60.1	60.1	60.1	72	51.0	0	0	---	0.00	29.919 
22:35	59.9	59.9	59.9	73	51.2	0	0	---	0.00	29.919 
22:40	59.8	59.8	59.8	73	51.1	0	0	---	0.00	29.919 
22:45	59.6	59.6	59.6	73	50.9	0	0	---	0.00	29.925 
22:50	59.5	59.5	59.5	74	51.2	0	0	---	0.00	29.925 
22:55	59.2	59.2	59.2	74	50.9	0	0	---	0.00	29.925 
23:00	59.0	59.0	59.0	75	51.1	0	0	---	0.00	29.927 
23:05	58.9	58.9	58.9	75	51.0	0	0	---	0.00	29.927 
23:10	58.6	58.6	58.6	76	51.1	0	0	---	0.00	29.927 
23:15	58.4	58.4	58.4	77	51.2	0	0	---	0.00	29.931 
23:20	58.1	58.1	58.1	77	50.9	0	0	---	0.00	29.931 
23:25	57.8	57.8	57.8	78	51.0	0	0	---	0.00	29.931 
23:30	57.5	57.5	57.5	79	51.0	0	0	---	0.00	29.930 
23:35	57.2	57.2	57.2	79	50.7	0	0	---	0.00	29.930 
23:40	56.9	56.9	56.9	80	50.8	0	0	---	0.00	29.930 
23:45	56.6	56.6	56.6	81	50.8	0	0	---	0.00	29.934 
23:50	56.3	56.3	56.3	82	50.9	0	0	---	0.00	29.934 
23:55	56.0	56.0	56.0	81	50.3	0	0	---	0.00	29.934 

CoCoRaHS
IN-AL-39
A2 Web Hosting
Creative Commons License
GoDaddy
Look for:

loaded 2017-10-17 22:04:58 • last modified 2010-11-18 10:43:29
Privacy PolicyDisclaimer
• wx.awcolley.com is powered by PmWiki v.2002016 •
• all content (unless otherwise noted) © 2017 A W Colley